Time;durP1;ratioP1;P1;durP2;ratioP2;P2;SDS_P1;SDS_P2;PMS_P1;PMS_P2;Temp;Humidity;BMP_temperature;BMP_pressure;BME280_temperature;BME280_humidity;BME280_pressure;Samples;Min_cycle;Max_cycle;Signal;HPM_P1;HPM_P2
2021/07/09 00:01:21;;;;;;;4.13;3.70;;;17.20;99.90;;;;;;5092022;28;20271;-75
2021/07/09 00:03:48;;;;;;;4.20;3.80;;;17.20;99.90;;;;;;5091950;28;20241;-74
2021/07/09 00:06:17;;;;;;;4.63;4.20;;;17.20;99.90;;;;;;5092126;28;20294;-75
2021/07/09 00:08:44;;;;;;;5.70;4.25;;;17.20;99.90;;;;;;5091963;28;20222;-74
2021/07/09 00:11:11;;;;;;;4.72;4.20;;;17.20;99.90;;;;;;5091941;28;20242;-74
2021/07/09 00:13:39;;;;;;;4.45;4.03;;;17.30;99.90;;;;;;5091985;28;20225;-74
2021/07/09 00:16:07;;;;;;;4.45;4.10;;;17.30;99.90;;;;;;5091113;28;20289;-75
2021/07/09 00:18:34;;;;;;;4.50;4.10;;;17.40;99.90;;;;;;5092224;28;20226;-74
2021/07/09 00:21:00;;;;;;;4.40;4.05;;;17.40;99.90;;;;;;5091707;28;20198;-74
2021/07/09 00:23:28;;;;;;;4.90;3.92;;;17.50;99.90;;;;;;5095518;28;20198;-74
2021/07/09 00:25:54;;;;;;;4.68;4.28;;;17.50;99.90;;;;;;5095516;28;20292;-75
2021/07/09 00:28:21;;;;;;;4.38;3.97;;;17.50;99.90;;;;;;5095776;28;20229;-75
2021/07/09 00:30:50;;;;;;;5.50;4.90;;;17.50;99.90;;;;;;5095513;28;20207;-74
2021/07/09 00:33:16;;;;;;;5.07;4.10;;;17.50;99.90;;;;;;5095593;28;20228;-75
2021/07/09 00:35:43;;;;;;;4.57;4.18;;;17.50;99.90;;;;;;5095409;28;20213;-74
2021/07/09 00:38:11;;;;;;;5.05;4.55;;;17.50;99.90;;;;;;5095345;28;20229;-74
2021/07/09 00:40:37;;;;;;;5.40;4.55;;;17.60;99.90;;;;;;5094974;28;20202;-75
2021/07/09 00:43:05;;;;;;;5.78;4.80;;;17.50;99.90;;;;;;5095319;28;20224;-75
2021/07/09 00:45:32;;;;;;;4.78;4.35;;;17.50;99.90;;;;;;5095539;28;20202;-75
2021/07/09 00:48:00;;;;;;;4.40;4.00;;;17.50;99.90;;;;;;5095201;28;20304;-74
2021/07/09 00:50:27;;;;;;;4.40;4.00;;;17.50;99.90;;;;;;5095002;28;20228;-74
2021/07/09 00:52:54;;;;;;;5.18;4.75;;;17.60;99.90;;;;;;5094680;28;20232;-75
2021/07/09 00:55:22;;;;;;;4.00;3.60;;;17.60;99.90;;;;;;5095238;28;20210;-75
2021/07/09 00:57:51;;;;;;;4.60;4.30;;;17.60;99.90;;;;;;5095877;28;20308;-75
2021/07/09 01:00:20;;;;;;;4.20;3.80;;;17.60;99.90;;;;;;5095728;28;20206;-76
2021/07/09 01:02:48;;;;;;;5.53;5.03;;;17.60;99.90;;;;;;5096457;28;20208;-75
2021/07/09 01:05:17;;;;;;;4.57;4.20;;;17.60;99.90;;;;;;5096213;28;20198;-76
2021/07/09 01:07:45;;;;;;;5.53;5.05;;;17.60;99.90;;;;;;5096434;28;20229;-74
2021/07/09 01:10:13;;;;;;;4.80;4.40;;;17.60;99.90;;;;;;5095865;28;20202;-74
2021/07/09 01:12:40;;;;;;;5.30;4.80;;;17.60;99.90;;;;;;5096127;28;20202;-74
2021/07/09 01:15:10;;;;;;;5.10;4.70;;;17.60;99.90;;;;;;5096245;28;20552;-74
2021/07/09 01:17:37;;;;;;;4.90;4.40;;;17.60;99.90;;;;;;5095947;28;20262;-74
2021/07/09 01:20:07;;;;;;;5.80;5.30;;;17.60;99.90;;;;;;5096333;28;20218;-75
2021/07/09 01:22:38;;;;;;;5.93;5.43;;;17.50;99.90;;;;;;5095006;28;20208;-75
2021/07/09 01:25:08;;;;;;;6.00;5.47;;;17.40;99.90;;;;;;5096194;28;20206;-75
2021/07/09 01:27:35;;;;;;;6.20;5.60;;;17.30;99.90;;;;;;5095695;28;20228;-75
2021/07/09 01:30:02;;;;;;;5.15;4.75;;;17.30;99.90;;;;;;5095350;28;20214;-75
2021/07/09 01:32:29;;;;;;;5.60;4.78;;;17.30;99.90;;;;;;5095928;28;20204;-75
2021/07/09 01:34:57;;;;;;;5.00;4.50;;;17.30;99.90;;;;;;5095173;28;20332;-75
2021/07/09 01:37:24;;;;;;;5.90;4.82;;;17.20;99.90;;;;;;5095794;28;20226;-75
2021/07/09 01:39:51;;;;;;;4.97;4.30;;;17.20;99.90;;;;;;5095800;28;20607;-74
2021/07/09 01:42:19;;;;;;;4.60;4.20;;;17.20;99.90;;;;;;5095665;28;20198;-75
2021/07/09 01:44:46;;;;;;;7.13;4.82;;;17.20;99.90;;;;;;5095716;28;20289;-75
2021/07/09 01:47:13;;;;;;;4.57;4.20;;;17.20;99.90;;;;;;5095161;28;20573;-75
2021/07/09 01:49:52;;;;;;;5.50;5.00;;;17.20;99.90;;;;;;5095440;28;20293;-74
2021/07/09 01:52:20;;;;;;;6.22;5.63;;;17.00;99.90;;;;;;5095416;28;20651;-75
2021/07/09 01:54:47;;;;;;;5.07;4.57;;;17.00;99.90;;;;;;5095357;28;20695;-75
2021/07/09 01:57:14;;;;;;;5.22;4.82;;;16.90;99.90;;;;;;5095839;28;20214;-75
2021/07/09 01:59:43;;;;;;;4.70;4.30;;;16.90;99.90;;;;;;5095960;28;20199;-75
2021/07/09 02:02:11;;;;;;;5.13;4.63;;;16.80;99.90;;;;;;5095077;28;20202;-74
2021/07/09 02:04:46;;;;;;;5.00;4.60;;;16.80;99.90;;;;;;5095269;28;20289;-74
2021/07/09 02:07:13;;;;;;;4.68;4.28;;;16.90;99.90;;;;;;5095623;28;20212;-74
2021/07/09 02:09:42;;;;;;;4.35;3.95;;;16.90;99.90;;;;;;5095791;28;20597;-74
2021/07/09 02:12:09;;;;;;;7.90;5.10;;;16.90;99.90;;;;;;5095071;28;20229;-75
2021/07/09 02:14:36;;;;;;;5.30;4.80;;;17.00;99.90;;;;;;5094728;28;20222;-74
2021/07/09 02:17:08;;;;;;;5.50;4.60;;;16.90;99.90;;;;;;5094695;28;20204;-74
2021/07/09 02:19:35;;;;;;;5.20;4.70;;;16.90;99.90;;;;;;5095260;28;20204;-75
2021/07/09 02:22:03;;;;;;;4.68;4.30;;;17.00;99.90;;;;;;5094915;28;20205;-75
2021/07/09 02:24:32;;;;;;;4.32;3.72;;;17.10;99.90;;;;;;5095053;28;20198;-75
2021/07/09 02:26:59;;;;;;;8.63;4.85;;;17.00;99.90;;;;;;5094409;28;20202;-75
2021/07/09 02:29:26;;;;;;;4.82;4.43;;;17.00;99.90;;;;;;5094014;28;20230;-74
2021/07/09 02:31:53;;;;;;;4.80;4.40;;;17.10;99.90;;;;;;5094609;28;20206;-74
2021/07/09 02:34:21;;;;;;;5.03;4.53;;;17.10;99.90;;;;;;5095168;28;20228;-74
2021/07/09 02:36:48;;;;;;;4.70;4.30;;;17.00;99.90;;;;;;5094518;28;20567;-75
2021/07/09 02:39:15;;;;;;;4.43;4.03;;;17.00;99.90;;;;;;5094616;28;20312;-75
2021/07/09 02:41:41;;;;;;;4.28;3.88;;;17.00;99.90;;;;;;5094377;28;20233;-75
2021/07/09 02:44:08;;;;;;;4.70;4.30;;;17.10;99.90;;;;;;5094438;28;20194;-75
2021/07/09 02:46:35;;;;;;;11.23;4.30;;;17.10;99.90;;;;;;5094349;28;20305;-75
2021/07/09 02:49:02;;;;;;;4.70;4.30;;;17.10;99.90;;;;;;5094075;28;20225;-75
2021/07/09 02:51:32;;;;;;;4.93;4.20;;;17.20;99.90;;;;;;5093768;28;20265;-75
2021/07/09 02:53:59;;;;;;;4.22;3.83;;;17.20;99.90;;;;;;5094357;28;20601;-74
2021/07/09 02:56:25;;;;;;;4.78;4.28;;;17.20;99.90;;;;;;5094764;28;20297;-75
2021/07/09 02:58:52;;;;;;;5.22;4.82;;;17.10;99.90;;;;;;5094867;28;20221;-75
2021/07/09 03:01:19;;;;;;;4.78;4.30;;;17.00;99.90;;;;;;5094572;28;20211;-75
2021/07/09 03:03:46;;;;;;;5.03;4.50;;;17.00;99.90;;;;;;5094586;28;20247;-75
2021/07/09 03:06:13;;;;;;;4.93;4.53;;;17.00;99.90;;;;;;5094609;28;20198;-75
2021/07/09 03:08:41;;;;;;;4.53;4.20;;;17.00;99.90;;;;;;5094235;28;20320;-75
2021/07/09 03:11:08;;;;;;;5.13;4.63;;;17.00;99.90;;;;;;5094593;28;20596;-75
2021/07/09 03:13:35;;;;;;;4.80;4.40;;;17.00;99.90;;;;;;5094836;28;20575;-75
2021/07/09 03:16:02;;;;;;;9.05;5.05;;;17.00;99.90;;;;;;5094720;28;20201;-75
2021/07/09 03:18:29;;;;;;;5.45;5.05;;;16.90;99.90;;;;;;5094414;28;20226;-75
2021/07/09 03:20:56;;;;;;;5.22;4.72;;;16.90;99.90;;;;;;5094446;28;20208;-75
2021/07/09 03:23:23;;;;;;;5.65;5.15;;;16.90;99.90;;;;;;5094460;28;20208;-75
2021/07/09 03:25:51;;;;;;;5.68;5.03;;;16.90;99.90;;;;;;5093704;28;20206;-75
2021/07/09 03:28:18;;;;;;;18.42;13.85;;;17.00;99.90;;;;;;5093527;28;20221;-75
2021/07/09 03:30:46;;;;;;;6.22;5.30;;;16.90;99.90;;;;;;5093511;28;20221;-74
2021/07/09 03:33:13;;;;;;;5.88;5.38;;;16.80;99.90;;;;;;5094353;28;20283;-75
2021/07/09 03:35:40;;;;;;;9.07;8.15;;;16.70;99.90;;;;;;5094198;28;20758;-75
2021/07/09 03:38:07;;;;;;;5.53;5.03;;;16.70;99.90;;;;;;5093713;28;20732;-74
2021/07/09 03:40:34;;;;;;;7.45;5.50;;;16.70;99.90;;;;;;5093611;28;20225;-75
2021/07/09 03:43:02;;;;;;;5.47;5.00;;;16.70;99.90;;;;;;5093715;28;20301;-74
2021/07/09 03:45:29;;;;;;;5.88;5.35;;;16.70;99.90;;;;;;5093560;28;20205;-75
2021/07/09 03:47:58;;;;;;;6.00;5.40;;;16.70;99.90;;;;;;5093683;28;20232;-75
2021/07/09 03:50:25;;;;;;;5.35;4.85;;;16.80;99.90;;;;;;5093637;28;20208;-74
2021/07/09 03:52:52;;;;;;;7.57;5.53;;;16.80;99.90;;;;;;5093636;28;20205;-74
2021/07/09 03:55:19;;;;;;;5.78;5.20;;;16.90;99.90;;;;;;5093845;28;20228;-74
2021/07/09 03:57:45;;;;;;;5.97;4.90;;;16.80;99.90;;;;;;5095697;28;20221;-75
2021/07/09 04:00:15;;;;;;;5.82;5.25;;;16.80;99.90;;;;;;5097265;28;20208;-74
2021/07/09 04:02:42;;;;;;;4.90;4.50;;;16.80;99.90;;;;;;5097385;28;20205;-75
2021/07/09 04:05:11;;;;;;;5.53;5.03;;;16.80;99.90;;;;;;5097424;28;20198;-74
2021/07/09 04:07:38;;;;;;;5.70;5.20;;;16.80;99.90;;;;;;5096999;28;20268;-75
2021/07/09 04:10:06;;;;;;;5.07;4.57;;;16.90;99.90;;;;;;5097691;28;20218;-75
2021/07/09 04:12:34;;;;;;;11.73;6.97;;;16.80;99.90;;;;;;5097527;28;20210;-75
2021/07/09 04:15:00;;;;;;;5.88;5.38;;;16.80;99.90;;;;;;5097212;28;20580;-75
2021/07/09 04:17:29;;;;;;;5.38;4.88;;;16.80;99.90;;;;;;5096870;28;20232;-75
2021/07/09 04:19:55;;;;;;;6.60;5.55;;;16.80;99.90;;;;;;5097220;28;20208;-75
2021/07/09 04:22:22;;;;;;;5.93;5.32;;;16.80;99.90;;;;;;5097167;28;20204;-75
2021/07/09 04:24:49;;;;;;;5.55;5.05;;;16.80;99.90;;;;;;5097400;28;20287;-75
2021/07/09 04:27:16;;;;;;;5.88;5.15;;;16.80;99.90;;;;;;5097243;28;20202;-75
2021/07/09 04:29:43;;;;;;;9.55;8.20;;;16.80;99.90;;;;;;5097492;28;20304;-75
2021/07/09 04:32:10;;;;;;;5.68;5.18;;;16.80;99.90;;;;;;5096931;28;20202;-75
2021/07/09 04:34:38;;;;;;;5.22;4.75;;;16.80;99.90;;;;;;5097037;28;20236;-75
2021/07/09 04:37:08;;;;;;;6.05;4.85;;;16.80;99.90;;;;;;5096925;28;20209;-75
2021/07/09 04:39:36;;;;;;;6.88;5.30;;;16.70;99.90;;;;;;5097279;28;20288;-75
2021/07/09 04:42:04;;;;;;;4.68;4.28;;;16.70;99.90;;;;;;5097042;28;20206;-74
2021/07/09 04:44:31;;;;;;;5.60;5.10;;;16.60;99.90;;;;;;5096672;28;20312;-74
2021/07/09 04:46:58;;;;;;;7.82;5.60;;;16.60;99.90;;;;;;5097057;28;20208;-75
2021/07/09 04:49:24;;;;;;;6.05;5.55;;;16.50;99.90;;;;;;5097530;28;20261;-74
2021/07/09 04:51:53;;;;;;;5.47;4.97;;;16.60;99.90;;;;;;5097563;28;20208;-75
2021/07/09 04:54:20;;;;;;;5.30;4.90;;;16.60;99.90;;;;;;5096906;28;20226;-75
2021/07/09 04:56:47;;;;;;;9.43;5.65;;;16.70;99.90;;;;;;5096945;28;20209;-75
2021/07/09 04:59:14;;;;;;;5.72;5.22;;;16.70;99.90;;;;;;5096740;28;20222;-75
2021/07/09 05:01:41;;;;;;;5.55;5.05;;;16.70;99.90;;;;;;5096143;28;20210;-75
2021/07/09 05:04:08;;;;;;;11.50;5.85;;;16.80;99.90;;;;;;5096419;28;20289;-75
2021/07/09 05:06:35;;;;;;;6.90;5.28;;;16.80;99.90;;;;;;5096458;28;20209;-75
2021/07/09 05:09:04;;;;;;;5.80;5.30;;;16.70;99.90;;;;;;5094735;28;20222;-75
2021/07/09 05:11:31;;;;;;;5.05;4.60;;;16.70;99.90;;;;;;5096019;28;20206;-75
2021/07/09 05:13:58;;;;;;;5.10;4.70;;;16.70;99.90;;;;;;5095799;28;20209;-75
2021/07/09 05:16:24;;;;;;;6.75;4.78;;;16.60;99.90;;;;;;5096254;28;20202;-75
2021/07/09 05:18:52;;;;;;;5.90;4.53;;;16.60;99.90;;;;;;5096420;28;20592;-74
2021/07/09 05:21:19;;;;;;;5.35;4.55;;;16.60;99.90;;;;;;5095764;28;20204;-75
2021/07/09 05:23:46;;;;;;;5.43;4.93;;;16.50;99.90;;;;;;5096297;28;20302;-74
2021/07/09 05:26:15;;;;;;;5.05;4.65;;;16.60;99.90;;;;;;5096139;28;20574;-74
2021/07/09 05:28:41;;;;;;;6.75;6.07;;;16.60;99.90;;;;;;5096097;28;20311;-74
2021/07/09 05:31:08;;;;;;;5.57;5.07;;;16.50;99.90;;;;;;5095560;28;20614;-75
2021/07/09 05:33:35;;;;;;;6.00;4.90;;;16.50;99.90;;;;;;5096137;28;20667;-74
2021/07/09 05:36:02;;;;;;;5.18;4.68;;;16.50;99.90;;;;;;5096045;28;20229;-75
2021/07/09 05:38:29;;;;;;;5.55;4.90;;;16.50;99.90;;;;;;5095736;28;20637;-74
2021/07/09 05:40:56;;;;;;;6.32;5.25;;;16.50;99.90;;;;;;5095383;28;20205;-74
2021/07/09 05:43:24;;;;;;;5.57;5.07;;;16.40;99.90;;;;;;5095815;28;20232;-74
2021/07/09 05:45:51;;;;;;;5.10;4.70;;;16.40;99.90;;;;;;5095838;28;20198;-74
2021/07/09 05:48:17;;;;;;;5.32;4.82;;;16.40;99.90;;;;;;5095878;28;20221;-74
2021/07/09 05:50:45;;;;;;;6.30;5.80;;;16.40;99.90;;;;;;5095727;28;20211;-74
2021/07/09 05:53:12;;;;;;;5.85;5.35;;;16.50;99.90;;;;;;5095921;28;20202;-74
2021/07/09 05:55:39;;;;;;;5.50;5.00;;;16.50;99.90;;;;;;5095550;28;20718;-74
2021/07/09 05:58:05;;;;;;;5.60;5.10;;;16.50;99.90;;;;;;5095564;28;20233;-74
2021/07/09 06:00:35;;;;;;;5.35;4.50;;;16.50;99.90;;;;;;5095178;28;20212;-75
2021/07/09 06:03:02;;;;;;;6.47;5.90;;;16.50;99.90;;;;;;5095758;28;20205;-74
2021/07/09 06:05:29;;;;;;;5.65;5.20;;;16.50;99.90;;;;;;5096543;28;20536;-75
2021/07/09 06:07:55;;;;;;;5.30;4.80;;;16.50;99.90;;;;;;5094909;28;20271;-74
2021/07/09 06:10:25;;;;;;;6.05;5.45;;;16.60;99.90;;;;;;5094931;28;20292;-74
2021/07/09 06:12:51;;;;;;;9.90;8.15;;;16.50;99.90;;;;;;5095272;28;20206;-74
2021/07/09 06:15:18;;;;;;;6.40;5.32;;;16.60;99.90;;;;;;5096055;28;20316;-74
2021/07/09 06:17:47;;;;;;;6.72;5.25;;;16.60;99.90;;;;;;5095989;28;20688;-75
2021/07/09 06:20:14;;;;;;;6.13;5.18;;;16.70;99.90;;;;;;5095787;28;20202;-74
2021/07/09 06:22:41;;;;;;;5.82;5.32;;;16.70;99.90;;;;;;5095093;28;20284;-75
2021/07/09 06:25:09;;;;;;;6.35;5.78;;;16.70;99.90;;;;;;5095180;28;20207;-75
2021/07/09 06:27:36;;;;;;;6.05;5.55;;;16.60;99.90;;;;;;5095347;28;20218;-75
2021/07/09 06:30:05;;;;;;;6.30;5.80;;;16.60;99.90;;;;;;5095192;28;20220;-74
2021/07/09 06:32:32;;;;;;;7.00;6.32;;;16.70;99.90;;;;;;5095808;28;20283;-75
2021/07/09 06:35:00;;;;;;;6.63;6.10;;;16.60;99.90;;;;;;5094975;28;20249;-75
2021/07/09 06:37:27;;;;;;;6.93;6.32;;;16.70;99.90;;;;;;5094601;28;20314;-75
2021/07/09 06:39:54;;;;;;;7.35;6.75;;;16.80;99.90;;;;;;5094607;28;20206;-75
2021/07/09 06:42:20;;;;;;;7.00;6.40;;;16.80;99.90;;;;;;5095291;28;20213;-75
2021/07/09 06:44:47;;;;;;;7.03;6.03;;;16.80;99.90;;;;;;5095203;28;20203;-75
2021/07/09 06:47:14;;;;;;;7.47;6.45;;;16.80;99.90;;;;;;5094730;28;20288;-75
2021/07/09 06:49:41;;;;;;;6.85;6.25;;;16.90;99.90;;;;;;5095028;28;20292;-75
2021/07/09 06:52:09;;;;;;;7.05;6.45;;;16.90;99.90;;;;;;5094296;28;20552;-75
2021/07/09 06:54:36;;;;;;;7.60;7.00;;;16.90;99.90;;;;;;5095279;28;20206;-75
2021/07/09 06:57:03;;;;;;;14.35;10.88;;;17.00;99.90;;;;;;5095041;28;20297;-75
2021/07/09 06:59:30;;;;;;;7.78;6.75;;;17.00;99.90;;;;;;5094775;28;20198;-75
2021/07/09 07:01:57;;;;;;;7.28;6.68;;;17.00;99.90;;;;;;5093627;28;20198;-75
2021/07/09 07:04:24;;;;;;;7.35;6.65;;;17.20;99.90;;;;;;5093932;28;20208;-75
2021/07/09 07:06:52;;;;;;;7.05;6.45;;;17.30;99.90;;;;;;5094005;28;20208;-75
2021/07/09 07:09:20;;;;;;;9.65;7.28;;;17.30;99.90;;;;;;5094909;28;20236;-75
2021/07/09 07:11:47;;;;;;;8.45;7.65;;;17.30;99.90;;;;;;5094301;28;20201;-75
2021/07/09 07:14:14;;;;;;;8.00;7.25;;;17.30;99.90;;;;;;5094533;28;20644;-75
2021/07/09 07:16:40;;;;;;;6.65;5.95;;;17.40;99.90;;;;;;5094123;28;20571;-75
2021/07/09 07:19:07;;;;;;;8.25;6.10;;;17.40;99.90;;;;;;5094593;28;20218;-75
2021/07/09 07:21:34;;;;;;;6.95;6.35;;;17.40;99.90;;;;;;5094039;28;20237;-74
2021/07/09 07:24:01;;;;;;;7.22;6.53;;;17.50;99.90;;;;;;5093968;28;20206;-75
2021/07/09 07:26:29;;;;;;;7.90;7.10;;;17.60;99.90;;;;;;5094025;28;20204;-75
2021/07/09 07:28:56;;;;;;;6.50;5.90;;;17.70;99.90;;;;;;5094215;28;20233;-75
2021/07/09 07:31:23;;;;;;;6.82;6.22;;;17.70;99.90;;;;;;5094169;28;20213;-75
2021/07/09 07:33:49;;;;;;;6.22;5.75;;;17.80;99.90;;;;;;5098079;28;20229;-75
2021/07/09 07:36:17;;;;;;;6.63;6.03;;;17.90;99.90;;;;;;5097940;28;20312;-75
2021/07/09 07:38:45;;;;;;;6.95;6.35;;;17.90;99.90;;;;;;5097632;28;20222;-75
2021/07/09 07:41:12;;;;;;;6.90;6.30;;;18.00;99.90;;;;;;5097922;28;20203;-75
2021/07/09 07:43:42;;;;;;;6.75;5.95;;;18.00;99.90;;;;;;5097917;28;20218;-75
2021/07/09 07:46:09;;;;;;;6.28;5.78;;;18.10;99.90;;;;;;5097837;28;20198;-75
2021/07/09 07:48:37;;;;;;;6.90;6.20;;;18.20;99.90;;;;;;5098034;28;20283;-75
2021/07/09 07:51:04;;;;;;;6.57;5.97;;;18.20;99.90;;;;;;5097351;28;20851;-75
2021/07/09 07:53:34;;;;;;;6.32;5.82;;;18.30;99.90;;;;;;5097949;28;20206;-75
2021/07/09 07:56:01;;;;;;;6.20;5.70;;;18.30;99.90;;;;;;5098109;28;20272;-75
2021/07/09 07:58:28;;;;;;;6.95;6.35;;;18.30;99.90;;;;;;5097446;28;20218;-73
2021/07/09 08:00:58;;;;;;;7.55;6.95;;;18.30;99.90;;;;;;5097520;28;20605;-72
2021/07/09 08:03:25;;;;;;;7.23;6.53;;;18.40;99.90;;;;;;5092208;28;20203;-72
2021/07/09 08:05:51;;;;;;;7.53;6.72;;;18.50;99.90;;;;;;5086508;28;20768;-72
2021/07/09 08:08:18;;;;;;;6.57;5.97;;;18.50;99.90;;;;;;5083814;28;20282;-73
2021/07/09 08:10:45;;;;;;;7.40;6.70;;;18.60;99.90;;;;;;5089343;28;20202;-72
2021/07/09 08:13:12;;;;;;;11.30;7.77;;;18.70;99.90;;;;;;5077068;28;20441;-72
2021/07/09 08:15:39;;;;;;;8.35;7.47;;;18.80;99.90;;;;;;5076948;28;20504;-72
2021/07/09 08:18:07;;;;;;;8.55;7.78;;;18.70;99.90;;;;;;5077056;28;20314;-73
2021/07/09 08:20:34;;;;;;;7.53;6.83;;;18.80;99.90;;;;;;5077028;28;20202;-73
2021/07/09 08:23:01;;;;;;;6.20;5.60;;;18.90;99.90;;;;;;5077021;28;20783;-73
2021/07/09 08:25:28;;;;;;;6.47;5.88;;;18.80;99.90;;;;;;5076705;28;20439;-73
2021/07/09 08:27:55;;;;;;;6.07;5.50;;;18.90;99.90;;;;;;5076527;28;20310;-72
2021/07/09 08:30:22;;;;;;;6.38;5.78;;;18.90;99.90;;;;;;5076481;28;20309;-72
2021/07/09 08:32:49;;;;;;;6.82;6.22;;;18.90;99.90;;;;;;5076720;28;20203;-72
2021/07/09 08:35:20;;;;;;;8.10;5.90;;;18.80;99.90;;;;;;5076865;28;20243;-73
2021/07/09 08:37:47;;;;;;;5.93;5.53;;;18.70;99.90;;;;;;5076595;28;20227;-72
2021/07/09 08:40:14;;;;;;;6.27;5.77;;;18.80;99.90;;;;;;5076078;28;20670;-73
2021/07/09 08:42:41;;;;;;;6.70;5.80;;;18.90;99.90;;;;;;5076276;28;20452;-73
2021/07/09 08:45:09;;;;;;;8.33;7.53;;;19.10;99.90;;;;;;5076444;28;20541;-73
2021/07/09 08:47:36;;;;;;;6.10;5.50;;;19.30;99.90;;;;;;5076553;28;20585;-73
2021/07/09 08:50:06;;;;;;;6.10;5.60;;;19.40;99.90;;;;;;5077003;28;20447;-72
2021/07/09 08:52:36;;;;;;;6.20;5.60;;;19.40;99.90;;;;;;5076239;28;20443;-73
2021/07/09 08:55:04;;;;;;;6.90;6.30;;;19.40;99.90;;;;;;5076387;28;20839;-73
2021/07/09 08:57:31;;;;;;;7.80;7.10;;;19.30;99.90;;;;;;5076137;28;20257;-73
2021/07/09 08:59:57;;;;;;;6.80;6.20;;;19.20;99.90;;;;;;5076251;28;20541;-73
2021/07/09 09:02:28;;;;;;;7.57;6.27;;;19.40;99.90;;;;;;5076406;28;20533;-73
2021/07/09 09:04:56;;;;;;;6.53;5.97;;;19.50;99.90;;;;;;5075888;28;20494;-73
2021/07/09 09:07:28;;;;;;;6.60;6.00;;;19.70;99.90;;;;;;5075769;28;20453;-73
2021/07/09 09:09:57;;;;;;;6.70;6.10;;;20.00;99.90;;;;;;5076235;28;20440;-72
2021/07/09 09:12:23;;;;;;;6.47;5.90;;;20.10;99.90;;;;;;5075809;28;20454;-73
2021/07/09 09:14:52;;;;;;;7.67;6.73;;;20.10;99.90;;;;;;5075903;28;20443;-73
2021/07/09 09:17:27;;;;;;;6.93;6.03;;;20.20;99.90;;;;;;5075489;28;20845;-73
2021/07/09 09:20:06;;;;;;;8.00;6.00;;;20.10;99.90;;;;;;5075779;28;20456;-72
2021/07/09 09:22:34;;;;;;;6.27;5.70;;;20.10;99.90;;;;;;5075731;28;20445;-73
2021/07/09 09:25:02;;;;;;;6.00;5.50;;;20.20;99.90;;;;;;5075522;28;20448;-73
2021/07/09 09:27:29;;;;;;;6.37;5.77;;;20.10;99.90;;;;;;5075492;28;20474;-73
2021/07/09 09:30:07;;;;;;;6.37;5.70;;;20.00;99.90;;;;;;5075184;28;20499;-73
2021/07/09 09:32:36;;;;;;;6.90;6.23;;;20.00;99.90;;;;;;5075821;28;20965;-73
2021/07/09 09:35:03;;;;;;;6.67;6.13;;;19.90;99.90;;;;;;5075541;28;20457;-73
2021/07/09 09:37:30;;;;;;;6.90;6.23;;;19.80;99.90;;;;;;5076932;28;21044;-73
2021/07/09 09:39:57;;;;;;;6.40;5.80;;;19.70;99.90;;;;;;5075933;28;20454;-73
2021/07/09 09:42:25;;;;;;;6.57;5.97;;;19.70;99.90;;;;;;5075299;28;20451;-73
2021/07/09 09:44:59;;;;;;;6.10;5.60;;;19.70;99.90;;;;;;5075244;28;20449;-73
2021/07/09 09:47:28;;;;;;;8.73;6.60;;;19.80;99.90;;;;;;5076332;28;20551;-73
2021/07/09 09:49:56;;;;;;;7.03;6.27;;;19.90;99.90;;;;;;5075715;28;20454;-73
2021/07/09 09:52:37;;;;;;;6.80;6.20;;;19.70;99.90;;;;;;5075691;28;20805;-73
2021/07/09 09:55:06;;;;;;;7.30;6.60;;;19.60;99.90;;;;;;5074608;28;20848;-73
2021/07/09 09:57:35;;;;;;;7.60;6.90;;;19.80;99.90;;;;;;5075040;28;20482;-73
2021/07/09 10:00:01;;;;;;;7.33;6.73;;;19.90;99.90;;;;;;5076448;28;20451;-73
2021/07/09 10:02:28;;;;;;;7.00;6.40;;;20.10;99.90;;;;;;5075646;28;20535;-73
2021/07/09 10:04:55;;;;;;;6.73;6.13;;;20.30;99.90;;;;;;5075893;28;20839;-73
2021/07/09 10:07:22;;;;;;;7.03;6.43;;;20.40;99.90;;;;;;5074725;28;20448;-73
2021/07/09 10:09:50;;;;;;;6.93;6.33;;;20.60;99.90;;;;;;5074921;28;20818;-72
2021/07/09 10:12:18;;;;;;;6.97;6.40;;;20.70;99.90;;;;;;5075047;28;20475;-73
2021/07/09 10:14:48;;;;;;;6.87;6.17;;;20.80;99.90;;;;;;5075089;28;20468;-73
2021/07/09 10:17:17;;;;;;;6.17;5.67;;;20.80;99.90;;;;;;5075291;28;20479;-73
2021/07/09 10:19:46;;;;;;;7.10;6.40;;;20.70;99.90;;;;;;5075957;28;21006;-73
2021/07/09 10:22:14;;;;;;;6.67;6.07;;;20.70;99.90;;;;;;5075154;28;20539;-73
2021/07/09 10:24:43;;;;;;;7.10;6.50;;;20.70;99.90;;;;;;5075694;28;20445;-73
2021/07/09 10:27:11;;;;;;;6.93;6.43;;;20.90;99.90;;;;;;5075392;28;20444;-73
2021/07/09 10:29:43;;;;;;;6.50;5.90;;;21.10;99.90;;;;;;5075941;28;20882;-73
2021/07/09 10:32:11;;;;;;;6.30;5.80;;;21.40;99.90;;;;;;5075168;28;20447;-73
2021/07/09 10:34:39;;;;;;;6.30;5.70;;;21.90;99.90;;;;;;5074785;28;20791;-73
2021/07/09 10:37:09;;;;;;;7.73;6.50;;;22.60;99.90;;;;;;5074239;28;20486;-73
2021/07/09 10:39:38;;;;;;;6.07;5.47;;;23.30;99.90;;;;;;5074966;28;20485;-73
2021/07/09 10:42:40;;;;;;;9.60;8.80;;;23.70;99.90;;;;;;5074659;28;20453;-73
2021/07/09 10:45:20;;;;;;;7.10;6.50;;;24.10;99.90;;;;;;5073955;28;20759;-73
2021/07/09 10:47:51;;;;;;;7.27;6.43;;;23.60;99.90;;;;;;5073944;28;20542;-73
2021/07/09 10:50:20;;;;;;;12.97;11.77;;;23.60;99.90;;;;;;5074104;28;20969;-73
2021/07/09 10:52:53;;;;;;;10.50;9.37;;;23.20;99.90;;;;;;5073907;28;20773;-73
2021/07/09 10:55:43;;;;;;;8.40;7.70;;;22.80;99.90;;;;;;5074111;28;20437;-73
2021/07/09 10:58:33;;;;;;;9.37;8.47;;;22.50;99.90;;;;;;5074200;28;20471;-73
2021/07/09 11:01:10;;;;;;;8.67;7.77;;;22.30;99.90;;;;;;5073656;28;20451;-73
2021/07/09 11:03:39;;;;;;;10.13;8.93;;;22.30;99.90;;;;;;5073806;28;20433;-73
2021/07/09 11:06:10;;;;;;;9.93;9.00;;;22.00;99.90;;;;;;5074114;28;20438;-73
2021/07/09 11:09:02;;;;;;;9.80;8.43;;;21.70;99.90;;;;;;5073859;28;20547;-72
2021/07/09 11:11:35;;;;;;;11.03;9.90;;;21.50;99.90;;;;;;5073362;28;20448;-73
2021/07/09 11:14:03;;;;;;;9.93;9.13;;;21.40;99.90;;;;;;5073694;28;20519;-73
2021/07/09 11:16:32;;;;;;;9.10;8.20;;;21.40;99.90;;;;;;5073525;28;20867;-73
2021/07/09 11:19:07;;;;;;;9.67;8.67;;;21.70;99.90;;;;;;5073961;28;20487;-73
2021/07/09 11:21:54;;;;;;;9.27;8.43;;;21.60;99.90;;;;;;5073532;28;20497;-73
2021/07/09 11:24:23;;;;;;;9.57;8.60;;;21.50;99.90;;;;;;5074190;28;20447;-73
2021/07/09 11:26:51;;;;;;;10.47;9.57;;;21.40;99.90;;;;;;5073621;28;20443;-73
2021/07/09 11:29:30;;;;;;;9.30;8.40;;;21.20;99.90;;;;;;5073447;28;20492;-73
2021/07/09 11:31:58;;;;;;;10.50;8.57;;;21.40;99.90;;;;;;5073651;28;20455;-73
2021/07/09 11:34:29;;;;;;;10.20;9.20;;;21.70;99.90;;;;;;5073840;28;20444;-73
2021/07/09 11:36:58;;;;;;;9.80;8.80;;;21.80;99.90;;;;;;5073381;28;20483;-73
2021/07/09 11:39:27;;;;;;;9.23;8.33;;;21.80;99.90;;;;;;5073173;28;20555;-73
2021/07/09 11:41:59;;;;;;;9.77;8.80;;;21.50;99.90;;;;;;5073548;28;20528;-73
2021/07/09 11:44:32;;;;;;;9.90;8.30;;;21.50;99.90;;;;;;5073720;28;20783;-73
2021/07/09 11:47:01;;;;;;;9.90;8.90;;;21.40;99.90;;;;;;5073431;28;20456;-73
2021/07/09 11:49:31;;;;;;;10.10;9.20;;;21.40;99.90;;;;;;5073258;28;20971;-73
2021/07/09 11:51:59;;;;;;;10.37;9.47;;;21.70;99.90;;;;;;5073333;28;20535;-73
2021/07/09 11:54:32;;;;;;;11.50;10.43;;;21.80;99.90;;;;;;5073526;28;20869;-73
2021/07/09 11:57:04;;;;;;;10.77;9.77;;;21.90;99.90;;;;;;5073710;28;20488;-73
2021/07/09 11:59:31;;;;;;;11.97;10.37;;;21.90;99.90;;;;;;5073225;28;20516;-73
2021/07/09 12:02:13;;;;;;;12.20;11.10;;;21.50;99.90;;;;;;5072771;28;20535;-73
2021/07/09 12:04:43;;;;;;;15.10;11.70;;;21.10;99.90;;;;;;5073125;28;20455;-73
2021/07/09 12:07:14;;;;;;;15.40;13.13;;;20.80;99.90;;;;;;5073975;28;20444;-73
2021/07/09 12:09:41;;;;;;;13.70;12.20;;;20.50;99.90;;;;;;5073834;28;20455;-73
2021/07/09 12:12:08;;;;;;;12.87;10.90;;;20.40;99.90;;;;;;5073308;28;20539;-73
2021/07/09 12:14:50;;;;;;;12.73;11.43;;;20.40;99.90;;;;;;5073089;28;20444;-73
2021/07/09 12:17:17;;;;;;;12.30;11.10;;;20.20;99.90;;;;;;5073126;28;20487;-73
2021/07/09 12:19:54;;;;;;;12.47;11.07;;;20.20;99.90;;;;;;5077260;28;20452;-73
2021/07/09 12:22:25;;;;;;;12.53;11.27;;;20.30;99.90;;;;;;5076655;28;21032;-73
2021/07/09 12:24:53;;;;;;;13.80;12.40;;;20.50;99.90;;;;;;5076356;28;20452;-73
2021/07/09 12:27:20;;;;;;;14.10;12.67;;;20.50;99.90;;;;;;5076719;28;20450;-73
2021/07/09 12:29:48;;;;;;;13.93;12.43;;;20.50;99.90;;;;;;5076370;28;20980;-72
2021/07/09 12:32:15;;;;;;;13.57;12.20;;;20.60;99.90;;;;;;5076845;28;20444;-73
2021/07/09 12:34:42;;;;;;;13.13;11.73;;;20.80;99.90;;;;;;5077155;28;20458;-73
2021/07/09 12:37:11;;;;;;;13.63;12.23;;;20.70;99.90;;;;;;5076908;28;20494;-72
2021/07/09 12:39:37;;;;;;;12.70;11.30;;;20.80;99.90;;;;;;5076276;28;20454;-72
2021/07/09 12:42:19;;;;;;;13.17;11.93;;;20.80;99.90;;;;;;5076360;28;20448;-72
2021/07/09 12:44:54;;;;;;;11.70;10.60;;;21.00;99.90;;;;;;5076670;28;20540;-72
2021/07/09 12:47:21;;;;;;;13.97;12.40;;;21.30;99.90;;;;;;5076658;28;20436;-72
2021/07/09 12:49:48;;;;;;;12.63;11.40;;;21.60;99.90;;;;;;5076260;28;20965;-73
2021/07/09 12:52:17;;;;;;;12.07;11.07;;;21.90;99.90;;;;;;5076140;28;20451;-73